createdAt,value
2024-03-12T00:00:42.571Z,58.08
2024-03-12T00:03:31.512Z,57.94
2024-03-12T00:06:01.216Z,57.88
2024-03-12T00:08:29.679Z,57.80
2024-03-12T00:10:58.807Z,57.44
2024-03-12T00:13:27.878Z,56.94
2024-03-12T00:15:57.093Z,56.86
2024-03-12T00:18:26.990Z,56.67
2024-03-12T00:20:55.579Z,56.40
2024-03-12T00:23:24.032Z,56.07
2024-03-12T00:25:52.459Z,56.00
2024-03-12T00:28:20.911Z,55.86
2024-03-12T00:30:49.267Z,55.61
2024-03-12T00:33:17.816Z,55.83
2024-03-12T00:35:47.603Z,55.77
2024-03-12T00:38:19.323Z,55.72
2024-03-12T00:40:49.436Z,55.89
2024-03-12T00:43:19.144Z,56.26
2024-03-12T00:45:48.468Z,56.23
2024-03-12T00:48:19.456Z,56.05
2024-03-12T00:50:49.461Z,56.22
2024-03-12T00:53:18.684Z,56.84
2024-03-12T00:55:48.938Z,57.27
2024-03-12T00:58:22.124Z,57.76
2024-03-12T01:00:51.303Z,58.75
2024-03-12T01:03:19.655Z,59.32
2024-03-12T01:05:47.923Z,59.88
2024-03-12T01:08:16.504Z,59.85
2024-03-12T01:10:44.832Z,60.80
2024-03-12T01:13:13.284Z,59.87
2024-03-12T01:15:43.410Z,60.19
2024-03-12T01:18:11.890Z,61.04
2024-03-12T01:20:40.559Z,61.48
2024-03-12T01:23:09.929Z,63.31
2024-03-12T01:25:38.766Z,62.95
2024-03-12T01:28:08.859Z,63.17
2024-03-12T01:30:38.564Z,63.00
2024-03-12T01:33:07.655Z,63.19
2024-03-12T01:35:40.997Z,62.69
2024-03-12T01:38:12.021Z,63.55
2024-03-12T01:40:43.144Z,63.90
2024-03-12T01:43:14.578Z,63.95
2024-03-12T01:45:43.899Z,64.58
2024-03-12T01:48:13.612Z,64.98
2024-03-12T01:50:42.649Z,65.73
2024-03-12T01:53:12.280Z,65.94
2024-03-12T01:55:45.134Z,65.46
2024-03-12T01:58:18.419Z,65.64
2024-03-12T02:00:47.837Z,65.05
2024-03-12T02:03:20.003Z,65.32
2024-03-12T02:05:49.301Z,65.38
2024-03-12T02:08:18.445Z,66.00
2024-03-12T02:10:47.229Z,66.06
2024-03-12T02:13:16.418Z,65.82
2024-03-12T02:15:45.427Z,66.21
2024-03-12T02:18:14.103Z,66.44
2024-03-12T02:20:43.139Z,65.99
2024-03-12T02:23:13.256Z,65.86
2024-03-12T02:25:44.423Z,66.16
2024-03-12T02:28:13.255Z,66.15
2024-03-12T02:30:42.027Z,66.68
2024-03-12T02:33:10.372Z,67.42
2024-03-12T02:35:38.752Z,68.26
2024-03-12T02:38:08.413Z,69.68
2024-03-12T02:40:37.330Z,71.38
2024-03-12T02:43:05.915Z,69.91
2024-03-12T02:45:34.957Z,70.69
2024-03-12T02:48:05.845Z,71.83
2024-03-12T02:50:34.249Z,72.36
2024-03-12T02:53:02.961Z,73.18
2024-03-12T02:55:31.325Z,72.54
2024-03-12T02:57:59.632Z,73.92
2024-03-12T03:00:27.838Z,75.24
2024-03-12T03:02:57.141Z,75.53
2024-03-12T03:05:25.666Z,75.71
2024-03-12T03:07:53.901Z,73.92
2024-03-12T03:10:22.462Z,73.75
2024-03-12T03:12:50.953Z,73.90
2024-03-12T03:15:19.604Z,74.09
2024-03-12T03:17:50.029Z,74.69
2024-03-12T03:20:18.589Z,74.47
2024-03-12T03:22:47.016Z,74.39
2024-03-12T03:25:16.423Z,75.79
2024-03-12T03:27:45.121Z,74.95
2024-03-12T03:30:20.196Z,74.91
2024-03-12T03:32:49.651Z,75.15
2024-03-12T03:35:19.585Z,74.52
2024-03-12T03:37:49.059Z,73.92
2024-03-12T03:40:24.374Z,73.52
2024-03-12T03:42:57.571Z,73.73
2024-03-12T03:45:26.433Z,74.46
2024-03-12T03:47:55.063Z,74.19
2024-03-12T03:50:23.646Z,73.70
2024-03-12T03:52:54.363Z,74.29
2024-03-12T03:55:23.356Z,74.14
2024-03-12T03:57:52.119Z,73.41
2024-03-12T04:00:31.738Z,73.25
2024-03-12T04:02:59.963Z,72.77
2024-03-12T04:05:28.278Z,73.02
2024-03-12T04:07:56.649Z,73.54
2024-03-12T04:10:25.923Z,73.33
2024-03-12T04:12:57.603Z,72.83
2024-03-12T04:15:30.309Z,72.49
2024-03-12T04:17:59.240Z,72.38
2024-03-12T04:20:27.698Z,71.96
2024-03-12T04:22:56.952Z,71.14
2024-03-12T04:25:25.475Z,70.88
2024-03-12T04:27:55.148Z,70.28
2024-03-12T04:30:23.921Z,69.99
2024-03-12T04:32:52.568Z,69.65
2024-03-12T04:35:21.899Z,69.44
2024-03-12T04:37:52.048Z,69.10
2024-03-12T04:42:50.781Z,70.97
2024-03-12T04:45:19.484Z,70.95
2024-03-12T04:47:50.195Z,70.88
2024-03-12T04:50:20.480Z,71.48
2024-03-12T04:52:48.979Z,71.83
2024-03-12T04:55:17.694Z,70.99
2024-03-12T04:57:46.232Z,71.15
2024-03-12T05:00:16.758Z,70.53
2024-03-12T05:02:46.560Z,70.41
2024-03-12T05:05:22.416Z,69.88
2024-03-12T05:07:53.972Z,69.11
2024-03-12T05:10:22.663Z,68.84
2024-03-12T05:12:54.118Z,69.38
2024-03-12T05:15:23.177Z,69.88
2024-03-12T05:17:53.645Z,68.72
2024-03-12T05:20:24.981Z,68.16
2024-03-12T05:22:55.133Z,68.16
2024-03-12T05:25:40.902Z,68.45
2024-03-12T05:28:11.548Z,69.03
2024-03-12T05:30:42.598Z,68.69
2024-03-12T05:33:15.725Z,68.29
2024-03-12T05:35:53.156Z,67.75
2024-03-12T05:38:35.186Z,67.45
2024-03-12T05:41:16.576Z,67.27
2024-03-12T05:44:03.603Z,70.45
2024-03-12T05:46:50.841Z,77.62
2024-03-12T05:49:21.169Z,78.96
2024-03-12T05:51:49.747Z,78.93
2024-03-12T05:54:18.053Z,79.74
2024-03-12T05:56:46.351Z,80.35
2024-03-12T05:59:14.561Z,79.39
2024-03-12T06:01:43.061Z,78.43
2024-03-12T06:04:11.529Z,77.16
2024-03-12T06:06:40.490Z,75.72
2024-03-12T06:09:10.679Z,75.71
2024-03-12T06:11:40.561Z,73.48
2024-03-12T06:14:10.451Z,71.88
2024-03-12T06:16:39.197Z,70.55
2024-03-12T06:19:07.899Z,72.13
2024-03-12T06:21:36.602Z,71.25
2024-03-12T06:24:06.673Z,70.68
2024-03-12T06:26:35.895Z,69.48
2024-03-12T06:29:04.528Z,70.11
2024-03-12T06:31:33.349Z,69.37
2024-03-12T06:34:02.912Z,68.38
2024-03-12T06:36:31.529Z,68.08
2024-03-12T06:39:00.349Z,66.57
2024-03-12T06:41:32.926Z,63.72
2024-03-12T06:44:01.636Z,64.38
2024-03-12T06:46:29.944Z,65.14
2024-03-12T06:48:59.542Z,65.03
2024-03-12T06:51:27.944Z,64.91
2024-03-12T06:53:56.308Z,64.76
2024-03-12T06:56:24.955Z,66.05
2024-03-12T06:58:53.122Z,66.72
2024-03-12T07:01:21.742Z,65.01
2024-03-12T07:03:53.200Z,64.33
2024-03-12T07:06:22.990Z,64.03
2024-03-12T07:08:52.149Z,63.98
2024-03-12T07:11:20.750Z,63.59
2024-03-12T07:13:50.491Z,63.51
2024-03-12T07:16:21.467Z,63.36
2024-03-12T07:18:49.950Z,65.16
2024-03-12T07:21:18.401Z,65.82
2024-03-12T07:23:48.120Z,66.81
2024-03-12T07:26:17.925Z,65.92
2024-03-12T07:28:46.481Z,65.22
2024-03-12T07:31:17.232Z,64.57
2024-03-12T07:33:46.365Z,65.09
2024-03-12T07:36:14.623Z,63.58
2024-03-12T07:38:43.556Z,62.80
2024-03-12T07:41:11.944Z,64.31
2024-03-12T07:43:40.966Z,63.29
2024-03-12T07:46:09.108Z,64.07
2024-03-12T07:48:38.311Z,63.23
2024-03-12T07:51:10.648Z,62.70
2024-03-12T07:53:40.966Z,62.12
2024-03-12T07:56:11.181Z,61.93
2024-03-12T07:58:41.990Z,62.45
2024-03-12T08:01:10.462Z,61.78
2024-03-12T08:03:43.173Z,62.09
2024-03-12T08:06:11.465Z,61.52
2024-03-12T08:08:40.106Z,61.59
2024-03-12T08:11:08.400Z,63.09
2024-03-12T08:13:36.821Z,61.22
2024-03-12T08:16:05.244Z,61.64
2024-03-12T08:18:33.933Z,62.30
2024-03-12T08:21:03.739Z,62.09
2024-03-12T08:23:32.340Z,62.32
2024-03-12T08:26:01.189Z,61.12
2024-03-12T08:28:30.305Z,60.12
2024-03-12T08:31:02.671Z,59.46
2024-03-12T08:33:36.848Z,58.55
2024-03-12T08:36:05.753Z,57.88
2024-03-12T08:38:34.410Z,56.60
2024-03-12T08:41:03.190Z,56.36
2024-03-12T08:43:31.601Z,57.78
2024-03-12T08:46:01.483Z,60.87
2024-03-12T08:48:29.856Z,61.40
2024-03-12T08:50:58.280Z,60.88
2024-03-12T08:53:26.893Z,59.77
2024-03-12T08:55:55.079Z,59.99
2024-03-12T08:58:24.463Z,59.27
2024-03-12T09:00:54.278Z,59.18
2024-03-12T09:03:23.158Z,58.12
2024-03-12T09:05:51.610Z,58.22
2024-03-12T09:08:20.189Z,58.00
2024-03-12T09:10:51.417Z,57.39
2024-03-12T09:13:22.695Z,57.62
2024-03-12T09:15:52.901Z,57.29
2024-03-12T09:18:25.695Z,56.65
2024-03-12T09:20:56.935Z,56.14
2024-03-12T09:23:30.329Z,55.82
2024-03-12T09:25:59.072Z,54.81
2024-03-12T09:28:28.443Z,54.69
2024-03-12T09:30:57.122Z,54.21
2024-03-12T09:33:30.192Z,54.16
2024-03-12T09:35:58.703Z,56.24
2024-03-12T09:38:27.472Z,58.39
2024-03-12T09:41:00.782Z,59.02
2024-03-12T09:43:36.476Z,59.53
2024-03-12T09:46:05.568Z,57.69
2024-03-12T09:48:34.597Z,57.06
2024-03-12T09:51:03.119Z,57.48
2024-03-12T09:53:32.206Z,57.82
2024-03-12T09:56:07.760Z,57.49
2024-03-12T09:58:36.733Z,57.14
2024-03-12T10:01:05.609Z,56.99
2024-03-12T10:03:37.253Z,56.24
2024-03-12T10:06:07.791Z,56.53
2024-03-12T10:08:36.497Z,55.11
2024-03-12T10:11:10.310Z,55.86
2024-03-12T10:13:41.766Z,55.14
2024-03-12T10:16:10.568Z,54.39
2024-03-12T10:18:40.227Z,54.29
2024-03-12T10:21:09.155Z,53.98
2024-03-12T10:23:38.925Z,54.62
2024-03-12T10:26:11.174Z,55.12
2024-03-12T10:28:41.120Z,54.51
2024-03-12T10:31:12.374Z,54.64
2024-03-12T10:33:46.843Z,54.48
2024-03-12T10:36:35.291Z,53.53
2024-03-12T10:39:08.119Z,52.46
2024-03-12T10:41:36.337Z,53.01
2024-03-12T10:44:11.874Z,52.20
2024-03-12T10:46:46.695Z,52.83
2024-03-12T10:49:19.125Z,51.97
2024-03-12T10:51:49.341Z,52.59
2024-03-12T10:54:18.601Z,52.91
2024-03-12T10:56:47.849Z,52.62
2024-03-12T10:59:19.286Z,52.23
2024-03-12T11:01:49.578Z,52.13
2024-03-12T11:04:18.839Z,51.41
2024-03-12T11:06:49.546Z,50.18
2024-03-12T11:09:23.397Z,50.49
2024-03-12T11:11:51.994Z,50.10
2024-03-12T11:14:20.587Z,49.09
2024-03-12T11:16:49.492Z,48.92
2024-03-12T11:19:20.824Z,48.85
2024-03-12T11:21:50.989Z,48.54
2024-03-12T11:24:31.066Z,48.69
2024-03-12T11:27:02.407Z,48.02
2024-03-12T11:30:15.971Z,47.82
2024-03-12T11:32:47.671Z,48.93
2024-03-12T11:35:18.918Z,49.79
2024-03-12T11:37:47.977Z,49.23
2024-03-12T11:40:29.127Z,49.74
2024-03-12T11:42:58.212Z,49.75
2024-03-12T11:45:47.000Z,49.90
2024-03-12T11:48:32.879Z,50.21
2024-03-12T11:51:01.381Z,50.73
2024-03-12T11:53:34.349Z,51.48
2024-03-12T11:56:11.541Z,51.02
2024-03-12T11:59:03.191Z,50.86
2024-03-12T12:01:35.923Z,51.16
2024-03-12T12:04:13.690Z,51.95
2024-03-12T12:06:43.834Z,51.57
2024-03-12T12:09:12.513Z,52.67
2024-03-12T12:11:41.774Z,52.37
2024-03-12T12:14:11.427Z,52.83
2024-03-12T12:16:41.070Z,53.14
2024-03-12T12:19:18.552Z,54.36
2024-03-12T12:21:53.682Z,55.42
2024-03-12T12:24:28.238Z,55.59
2024-03-12T12:26:57.685Z,55.55
2024-03-12T12:29:30.113Z,56.08
2024-03-12T12:31:59.205Z,56.28
2024-03-12T12:34:29.926Z,55.85
2024-03-12T12:37:00.451Z,56.99
2024-03-12T12:39:40.240Z,57.23
2024-03-12T12:42:12.713Z,57.67
2024-03-12T12:44:41.313Z,57.18
2024-03-12T12:47:11.370Z,57.41
2024-03-12T12:49:40.121Z,57.61
2024-03-12T12:52:08.772Z,57.46
2024-03-12T12:54:40.710Z,57.31
2024-03-12T12:57:12.047Z,57.22
2024-03-12T12:59:41.355Z,57.65
2024-03-12T13:02:19.766Z,60.20
2024-03-12T13:04:56.475Z,61.98
2024-03-12T13:07:34.435Z,62.61
2024-03-12T13:10:20.428Z,64.12
2024-03-12T13:12:49.298Z,64.87
2024-03-12T13:15:28.232Z,65.17
2024-03-12T13:17:56.481Z,66.10
2024-03-12T13:20:25.697Z,67.34
2024-03-12T13:22:54.398Z,68.48
2024-03-12T13:25:22.940Z,69.03
2024-03-12T13:27:52.222Z,68.05
2024-03-12T13:30:21.256Z,68.34
2024-03-12T13:32:49.429Z,68.95
2024-03-12T13:35:20.377Z,68.11
2024-03-12T13:37:48.827Z,66.88
2024-03-12T13:40:17.453Z,66.56
2024-03-12T13:42:46.625Z,66.57
2024-03-12T13:45:15.186Z,65.40
2024-03-12T13:47:44.921Z,65.15
2024-03-12T13:50:13.736Z,65.56
2024-03-12T13:52:43.443Z,65.22
2024-03-12T13:55:12.696Z,65.11
2024-03-12T13:57:41.344Z,64.21
2024-03-12T14:00:11.364Z,63.29
2024-03-12T14:02:42.641Z,62.53
2024-03-12T14:05:13.674Z,61.43
2024-03-12T14:07:43.477Z,61.87
2024-03-12T14:10:11.995Z,63.47
2024-03-12T14:12:41.119Z,63.36
2024-03-12T14:15:10.148Z,62.83
2024-03-12T14:17:39.209Z,61.88
2024-03-12T14:20:15.267Z,61.10
2024-03-12T14:22:45.244Z,60.30
2024-03-12T14:25:14.255Z,59.66
2024-03-12T14:27:42.784Z,59.90
2024-03-12T14:30:14.571Z,59.96
2024-03-12T14:32:43.169Z,59.29
2024-03-12T14:35:11.410Z,58.28
2024-03-12T14:37:42.814Z,58.03
2024-03-12T14:40:12.025Z,57.67
2024-03-12T14:42:41.454Z,57.35
2024-03-12T14:45:14.210Z,57.52
2024-03-12T14:47:42.807Z,56.04
2024-03-12T14:50:11.784Z,55.64
2024-03-12T14:52:40.145Z,55.84
2024-03-12T14:55:09.735Z,56.60
2024-03-12T14:57:38.333Z,55.87
2024-03-12T15:00:09.567Z,56.12
2024-03-12T15:02:38.675Z,55.34
2024-03-12T15:05:12.593Z,56.06
2024-03-12T15:07:44.581Z,56.38
2024-03-12T15:10:13.921Z,56.06
2024-03-12T15:12:43.259Z,56.71
2024-03-12T15:15:13.455Z,56.54
2024-03-12T15:17:43.741Z,57.29
2024-03-12T15:20:18.013Z,57.02
2024-03-12T15:22:50.381Z,57.10
2024-03-12T15:25:22.417Z,57.36
2024-03-12T15:27:50.872Z,57.67
2024-03-12T15:30:19.374Z,58.39
2024-03-12T15:32:47.801Z,58.93
2024-03-12T15:35:16.346Z,59.37
2024-03-12T15:37:44.741Z,60.11
2024-03-12T15:40:15.121Z,60.24
2024-03-12T15:42:45.632Z,58.85
2024-03-12T15:45:16.969Z,57.73
2024-03-12T15:47:45.897Z,56.45
2024-03-12T15:50:16.731Z,55.93
2024-03-12T15:52:45.580Z,56.15
2024-03-12T15:55:14.372Z,55.63
2024-03-12T15:57:46.178Z,55.23
2024-03-12T16:00:16.016Z,55.90
2024-03-12T16:02:45.199Z,56.40
2024-03-12T16:05:13.932Z,56.82
2024-03-12T16:07:42.275Z,57.36
2024-03-12T16:10:11.297Z,56.78
2024-03-12T16:12:42.931Z,56.41
2024-03-12T16:15:14.983Z,57.00
2024-03-12T16:17:43.742Z,56.81
2024-03-12T16:20:16.517Z,56.40
2024-03-12T16:22:45.020Z,57.42
2024-03-12T16:25:16.880Z,58.67
2024-03-12T16:27:45.811Z,58.77
2024-03-12T16:30:15.631Z,58.72
2024-03-12T16:32:45.237Z,58.97
2024-03-12T16:35:16.045Z,59.04
2024-03-12T16:37:45.292Z,58.65
2024-03-12T16:40:14.543Z,58.11
2024-03-12T16:42:45.848Z,58.60
2024-03-12T16:45:14.637Z,57.63
2024-03-12T16:47:43.415Z,57.56
2024-03-12T16:50:16.167Z,57.15
2024-03-12T16:52:44.775Z,57.84
2024-03-12T16:55:14.386Z,57.51
2024-03-12T16:57:43.049Z,57.96
2024-03-12T17:00:15.679Z,57.77
2024-03-12T17:02:44.797Z,57.28
2024-03-12T17:05:17.474Z,56.96
2024-03-12T17:07:52.570Z,57.19
2024-03-12T17:10:23.734Z,58.56
2024-03-12T17:12:54.701Z,57.57
2024-03-12T17:15:24.792Z,58.21
2024-03-12T17:17:53.612Z,57.04
2024-03-12T17:20:22.384Z,56.72
2024-03-12T17:22:52.042Z,57.67
2024-03-12T17:25:21.000Z,57.22
2024-03-12T17:27:53.168Z,56.49
2024-03-12T17:30:25.885Z,56.55
2024-03-12T17:32:56.490Z,56.91
2024-03-12T17:35:25.389Z,57.97
2024-03-12T17:37:59.674Z,58.12
2024-03-12T17:40:29.010Z,58.36
2024-03-12T17:43:01.280Z,59.49
2024-03-12T17:45:31.486Z,59.26
2024-03-12T17:48:02.389Z,59.32
2024-03-12T17:50:32.010Z,59.52
2024-03-12T17:53:03.349Z,58.91
2024-03-12T17:55:32.307Z,59.16
2024-03-12T17:58:01.642Z,58.74
2024-03-12T18:00:31.192Z,58.85
2024-03-12T18:03:00.532Z,59.44
2024-03-12T18:05:29.851Z,59.22
2024-03-12T18:08:00.244Z,58.85
2024-03-12T18:10:30.193Z,59.03
2024-03-12T18:12:58.843Z,59.82
2024-03-12T18:15:29.128Z,59.75
2024-03-12T18:17:57.992Z,59.79
2024-03-12T18:20:31.462Z,58.87
2024-03-12T18:23:00.140Z,59.32
2024-03-12T18:25:30.914Z,59.68
2024-03-12T18:27:59.308Z,59.73
2024-03-12T18:30:28.320Z,59.71
2024-03-12T18:32:56.800Z,60.12
2024-03-12T18:35:25.352Z,60.52
2024-03-12T18:37:53.925Z,60.24
2024-03-12T18:40:23.766Z,59.92
2024-03-12T18:42:52.844Z,60.58
2024-03-12T18:45:24.200Z,60.18
2024-03-12T18:47:56.430Z,60.10
2024-03-12T18:50:29.342Z,60.25
2024-03-12T18:52:58.554Z,60.20
2024-03-12T18:55:28.417Z,60.20
2024-03-12T18:57:58.428Z,60.08
2024-03-12T19:00:27.804Z,61.42
2024-03-12T19:02:59.791Z,61.46
2024-03-12T19:05:29.025Z,61.58
2024-03-12T19:07:57.908Z,61.33
2024-03-12T19:10:30.813Z,61.25
2024-03-12T19:13:00.475Z,62.00
2024-03-12T19:15:37.483Z,62.84
2024-03-12T19:18:15.549Z,62.39
2024-03-12T19:20:44.282Z,61.41
2024-03-12T19:23:12.945Z,60.46
2024-03-12T19:25:42.725Z,60.78
2024-03-12T19:28:11.916Z,60.77
2024-03-12T19:30:40.990Z,60.90
2024-03-12T19:33:10.798Z,60.66
2024-03-12T19:35:40.289Z,60.70
2024-03-12T19:38:10.607Z,61.06
2024-03-12T19:40:39.468Z,61.67
2024-03-12T19:43:08.674Z,62.20
2024-03-12T19:45:37.394Z,61.92
2024-03-12T19:48:07.429Z,62.17
2024-03-12T19:50:36.924Z,61.28
2024-03-12T19:53:05.529Z,61.58
2024-03-12T19:55:37.762Z,61.44
2024-03-12T19:58:06.078Z,60.50
2024-03-12T20:00:34.690Z,60.52
2024-03-12T20:03:07.850Z,61.19
2024-03-12T20:05:37.359Z,62.67
2024-03-12T20:08:10.288Z,64.11
2024-03-12T20:10:40.284Z,65.01
2024-03-12T20:13:10.815Z,65.62
2024-03-12T20:15:46.223Z,65.17
2024-03-12T20:18:15.724Z,65.90
2024-03-12T20:20:44.897Z,66.08
2024-03-12T20:23:13.465Z,66.56
2024-03-12T20:25:41.876Z,65.99
2024-03-12T20:28:13.330Z,65.35
2024-03-12T20:30:42.028Z,64.50
2024-03-12T20:33:13.329Z,64.46
2024-03-12T20:35:44.358Z,65.16
2024-03-12T20:38:15.501Z,64.63
2024-03-12T20:40:44.416Z,63.96
2024-03-12T20:43:13.083Z,63.63
2024-03-12T20:45:42.422Z,63.46
2024-03-12T20:48:11.996Z,62.92
2024-03-12T20:50:41.236Z,62.81
2024-03-12T20:53:11.658Z,63.66
2024-03-12T20:55:40.412Z,63.55
2024-03-12T20:58:09.022Z,64.24
2024-03-12T21:00:38.920Z,64.96
2024-03-12T21:03:11.086Z,65.36
2024-03-12T21:05:40.800Z,65.33
2024-03-12T21:08:09.134Z,65.85
2024-03-12T21:10:39.524Z,65.98
2024-03-12T21:13:08.119Z,65.69
2024-03-12T21:15:36.586Z,65.62
2024-03-12T21:18:07.270Z,65.66
2024-03-12T21:20:35.828Z,66.51
2024-03-12T21:23:09.848Z,67.43
2024-03-12T21:25:38.468Z,67.68
2024-03-12T21:28:07.096Z,67.56
2024-03-12T21:30:37.430Z,68.04
2024-03-12T21:33:05.928Z,68.10
2024-03-12T21:35:35.230Z,68.16
2024-03-12T21:38:03.684Z,68.35
2024-03-12T21:40:36.101Z,68.04
2024-03-12T21:43:05.521Z,67.31
2024-03-12T21:45:36.774Z,67.11
2024-03-12T21:48:08.220Z,66.42
2024-03-12T21:50:36.951Z,66.09
2024-03-12T21:53:09.190Z,65.78
2024-03-12T21:55:40.607Z,65.88
2024-03-12T21:58:10.381Z,65.64
2024-03-12T22:00:38.929Z,65.91
2024-03-12T22:03:08.812Z,65.70
2024-03-12T22:05:37.358Z,65.73
2024-03-12T22:08:06.234Z,65.45
2024-03-12T22:10:35.758Z,66.04
2024-03-12T22:13:04.378Z,66.20
2024-03-12T22:15:32.834Z,66.48
2024-03-12T22:18:02.107Z,66.70
2024-03-12T22:20:30.420Z,67.18
2024-03-12T22:22:59.286Z,66.86
2024-03-12T22:25:28.093Z,67.28
2024-03-12T22:27:57.341Z,67.71
2024-03-12T22:30:25.806Z,68.12
2024-03-12T22:32:54.114Z,68.32
2024-03-12T22:35:22.560Z,67.57
2024-03-12T22:37:51.393Z,67.46
2024-03-12T22:40:20.361Z,67.91
2024-03-12T22:42:49.793Z,69.19
2024-03-12T22:45:18.475Z,69.71
2024-03-12T22:47:46.883Z,69.09
2024-03-12T22:50:15.812Z,69.20
2024-03-12T22:52:48.289Z,68.65
2024-03-12T22:55:17.557Z,67.62
2024-03-12T22:57:47.841Z,67.35
2024-03-12T23:00:29.307Z,66.81
2024-03-12T23:03:02.829Z,67.25
2024-03-12T23:05:35.822Z,67.69
2024-03-12T23:08:09.452Z,67.49
2024-03-12T23:10:41.277Z,67.65
2024-03-12T23:13:14.999Z,67.79
2024-03-12T23:15:48.120Z,67.61
2024-03-12T23:18:16.819Z,68.51
2024-03-12T23:20:47.188Z,68.81
2024-03-12T23:23:16.302Z,68.88
2024-03-12T23:25:45.343Z,69.01
2024-03-12T23:28:14.339Z,70.15
2024-03-12T23:30:45.930Z,70.39
2024-03-12T23:33:14.851Z,70.39
2024-03-12T23:35:43.598Z,70.90
2024-03-12T23:38:12.854Z,70.90
2024-03-12T23:40:42.299Z,71.39
2024-03-12T23:43:11.691Z,71.01
2024-03-12T23:45:40.392Z,71.22
2024-03-12T23:48:08.916Z,70.88
2024-03-12T23:50:37.233Z,70.21
2024-03-12T23:53:06.821Z,69.72
2024-03-12T23:55:35.528Z,69.65
2024-03-12T23:58:05.463Z,70.07
